Aviation Digital Data Service (ADDS)

Output produced by METARs form (1906 UTC 11 February 2016)
found at http://aviationweather.gov/adds/metars/
 
KDAN 111723Z 1118/1218 28011KT P6SM SKC 
     FM112300 29003KT P6SM SKC 
     FM120700 VRB03KT P6SM BKN120 
     FM121400 13004KT P6SM SCT035 OVC050